createdAt,value
2019-05-28T00:02:50.208Z,17.3
2019-05-28T00:12:49.473Z,17.3
2019-05-28T00:22:48.698Z,17.2
2019-05-28T00:32:47.864Z,17.1
2019-05-28T00:42:47.081Z,17.1
2019-05-28T00:52:46.297Z,17.1
2019-05-28T01:02:45.561Z,16.9
2019-05-28T01:12:44.734Z,16.9
2019-05-28T01:22:43.955Z,16.8
2019-05-28T01:32:43.218Z,16.8
2019-05-28T01:42:42.383Z,16.7
2019-05-28T01:52:41.585Z,16.6
2019-05-28T02:02:40.852Z,16.5
2019-05-28T02:12:40.016Z,16.5
2019-05-28T02:22:39.237Z,16.6
2019-05-28T02:32:38.456Z,16.6
2019-05-28T02:42:37.674Z,16.6
2019-05-28T02:52:36.889Z,16.6
2019-05-28T03:02:36.105Z,16.6
2019-05-28T03:12:35.321Z,16.7
2019-05-28T03:22:34.585Z,16.7
2019-05-28T03:32:33.804Z,16.7
2019-05-28T03:42:33.022Z,16.8
2019-05-28T03:52:32.191Z,16.9
2019-05-28T04:02:31.398Z,17.6
2019-05-28T04:12:30.616Z,18.1
2019-05-28T04:22:29.834Z,18.3
2019-05-28T04:32:39.726Z,18.4
2019-05-28T04:42:28.269Z,19
2019-05-28T04:52:30.459Z,19.7
2019-05-28T05:02:26.759Z,20
2019-05-28T05:12:25.984Z,19.9
2019-05-28T05:22:25.147Z,20.2
2019-05-28T05:32:27.713Z,20.6
2019-05-28T05:42:23.593Z,21.5
2019-05-28T05:52:22.814Z,21.9
2019-05-28T06:02:22.025Z,22.2
2019-05-28T06:12:21.245Z,22.8
2019-05-28T06:22:20.516Z,23
2019-05-28T06:32:19.689Z,23.7
2019-05-28T06:42:18.909Z,24.4
2019-05-28T06:52:18.171Z,24.6
2019-05-28T07:02:17.339Z,24.9
2019-05-28T07:12:18.127Z,25.1
2019-05-28T07:22:15.836Z,24.9
2019-05-28T07:32:14.999Z,25.1
2019-05-28T07:42:14.214Z,25.6
2019-05-28T07:52:13.497Z,26.5
2019-05-28T08:02:12.654Z,27.2
2019-05-28T08:12:11.914Z,27.7
2019-05-28T08:22:13.599Z,27.9
2019-05-28T08:32:10.304Z,28.5
2019-05-28T08:42:09.573Z,28.8
2019-05-28T08:52:08.792Z,28.6
2019-05-28T09:02:23.858Z,28.9
2019-05-28T09:12:09.615Z,28.6
2019-05-28T09:22:06.406Z,28.9
2019-05-28T09:32:05.670Z,28.6
2019-05-28T09:42:04.840Z,28.4
2019-05-28T09:52:04.048Z,28.1
2019-05-28T10:02:03.274Z,27.9
2019-05-28T10:12:02.488Z,28
2019-05-28T10:22:01.704Z,28.9
2019-05-28T10:32:00.935Z,28.8
2019-05-28T10:42:00.147Z,28.4
2019-05-28T10:51:59.367Z,28.3
2019-05-28T11:01:58.576Z,28.4
2019-05-28T11:11:57.793Z,28.5
2019-05-28T11:21:57.074Z,28.3
2019-05-28T11:31:56.239Z,28.4
2019-05-28T11:41:55.501Z,27.9
2019-05-28T11:51:54.682Z,27.9
2019-05-28T12:01:53.888Z,28
2019-05-28T12:11:53.113Z,27.9
2019-05-28T12:21:52.338Z,27.4
2019-05-28T12:31:51.595Z,27.4
2019-05-28T12:42:01.373Z,27.9
2019-05-28T12:51:49.982Z,27.9
2019-05-28T13:01:49.254Z,28.1
2019-05-28T13:11:48.473Z,28.2
2019-05-28T13:21:47.645Z,28.3
2019-05-28T13:31:46.913Z,28.4
2019-05-28T13:41:46.133Z,28.1
2019-05-28T13:51:45.302Z,27.6
2019-05-28T14:01:44.520Z,27.3
2019-05-28T14:11:43.738Z,27.2
2019-05-28T14:21:43.008Z,27.3
2019-05-28T14:31:42.175Z,27.3
2019-05-28T14:41:41.387Z,27.1
2019-05-28T14:51:40.613Z,26.9
2019-05-28T15:01:39.834Z,26.8
2019-05-28T15:11:39.045Z,26.5
2019-05-28T15:21:38.274Z,26.4
2019-05-28T15:31:37.532Z,26.2
2019-05-28T15:41:36.721Z,26.3
2019-05-28T15:51:35.971Z,26.1
2019-05-28T16:01:35.142Z,25.8
2019-05-28T16:11:34.364Z,25.4
2019-05-28T16:21:33.639Z,25
2019-05-28T16:31:32.859Z,24.6
2019-05-28T16:41:32.021Z,24.4
2019-05-28T16:51:31.243Z,24.2
2019-05-28T17:01:30.473Z,23.9
2019-05-28T17:11:29.696Z,23.7
2019-05-28T17:21:28.960Z,23.5
2019-05-28T17:31:28.139Z,23.2
2019-05-28T17:41:27.370Z,23
2019-05-28T17:51:26.587Z,22.8
2019-05-28T18:01:25.808Z,22.5
2019-05-28T18:11:25.043Z,22.4
2019-05-28T18:21:24.279Z,22.3
2019-05-28T18:31:23.523Z,22.3
2019-05-28T18:41:22.728Z,22.2
2019-05-28T18:51:21.956Z,22.2
2019-05-28T19:01:21.186Z,22.2
2019-05-28T19:11:28.945Z,22.2
2019-05-28T19:21:19.647Z,22.2
2019-05-28T19:31:18.880Z,22.1
2019-05-28T19:41:18.118Z,21.9
2019-05-28T19:51:17.346Z,21.1
2019-05-28T20:01:16.572Z,20.6
2019-05-28T20:11:15.793Z,20.3
2019-05-28T20:21:15.019Z,20.5
2019-05-28T20:31:14.255Z,20.4
2019-05-28T20:41:13.522Z,20.4
2019-05-28T20:51:19.931Z,20.3
2019-05-28T21:01:11.925Z,20.1
2019-05-28T21:13:00.814Z,19.7
2019-05-28T21:23:00.372Z,19.6
2019-05-28T21:32:59.263Z,19.6
2019-05-28T21:43:05.934Z,19.5
2019-05-28T21:52:58.956Z,19.5
2019-05-28T22:02:56.939Z,19.4
2019-05-28T22:12:56.202Z,19.5
2019-05-28T22:22:56.279Z,19.6
2019-05-28T22:32:55.707Z,19.6
2019-05-28T22:42:54.201Z,20.3
2019-05-28T22:52:53.519Z,21
2019-05-28T23:02:52.789Z,21.3
2019-05-28T23:12:52.009Z,21.4
2019-05-28T23:22:51.236Z,21.4
2019-05-28T23:32:50.460Z,21.4
2019-05-28T23:42:49.737Z,21.3
2019-05-28T23:52:48.903Z,21.3
